WEATHER DATA

YESTERDAY
Time Temp. Dewp. Hum. Wind dir Wind speed Wind gust Bar. 1h Prec. 24h Prec.
00:09 5.2 4.3 94 220 1.4 2.8 1036 0.0000 0.0000
00:20 5.2 4.3 94 224 1.7 2.8 1035.8 0.0000 0.0000
00:35 5.3 4.4 94 225 1.7 3.1 1035.7 0.0000 0.0000
00:45 5.3 4.4 94 221 1.9 3.1 1035.7 0.0000 0.0000
00:55 5.3 4.4 94 224 1.9 3.1 1035.6 0.0000 0.0000
01:06 5.4 4.5 94 222 1.7 3.1 1035.5 0.0000 0.0000
01:15 5.4 4.5 94 234 1.4 1.9 1035.5 0.0000 0.0000
01:25 5.4 4.4 93 225 1.7 2.5 1035.5 0.0000 0.0000
01:35 5.5 4.5 93 235 1.4 2.2 1035.4 0.0000 0.0000
01:46 5.5 4.5 93 234 1.4 2.2 1035.3 0.0000 0.0000
01:56 5.5 4.5 93 242 1.4 2.2 1035.3 0.0000 0.0000
02:11 5.5 4.3 92 230 1.7 3.1 1035.3 0.0000 0.0000
02:22 5.4 4.2 92 240 1.1 1.9 1035.3 0.0000 0.0000
02:31 5.3 4 91 243 1.4 2.2 1035.3 0.0000 0.0000
02:41 5.2 3.9 91 249 1.7 2.8 1035.3 0.0000 0.0000
02:52 5 3.5 90 238 1.1 2.2 1035.3 0.0000 0.0000
03:02 4.8 3.3 90 230 1.9 2.8 1035.3 0.0000 0.0000
03:12 4.6 3.1 90 218 1.9 3.1 1035.2 0.0000 0.0000
03:27 4.3 2.8 90 225 1.9 3.1 1035.2 0.0000 0.0000
03:37 4.2 2.9 91 222 1.9 3.1 1035.1 0.0000 0.0000
03:47 4.2 2.9 91 242 1.7 2.5 1035 0.0000 0.0000
03:57 4.1 2.8 91 255 1.4 3.6 1035 0.0000 0.0000
04:03 4.1 2.8 91 251 1.4 2.2 1034.9 0.0000 0.0000
04:18 4.2 2.9 91 240 1.4 3.1 1034.9 0.0000 0.0000
04:28 4.2 3 92 232 1.4 2.2 1034.8 0.0000 0.0000
04:38 4.2 3 92 247 1.1 1.9 1035 0.0000 0.0000
04:48 4.3 3.1 92 247 1.4 2.2 1034.8 0.0000 0.0000
04:59 4.3 3.1 92 238 1.1 2.2 1034.8 0.0000 0.0000
05:09 4.3 3.1 92 251 1.4 1.9 1034.9 0.0000 0.0000
05:18 4.4 3.2 92 233 1.7 2.8 1034.8 0.0000 0.0000
05:29 4.4 3.2 92 219 1.7 3.3 1034.8 0.0000 0.0000
05:39 4.4 3.2 92 225 1.4 3.1 1034.8 0.0000 0.0000
05:49 4.5 3.3 92 232 1.7 2.8 1034.8 0.0000 0.0000
06:45 4.5 3.2 91 264 1.7 2.5 1034.8 0.0000 0.0000
06:55 4.5 3.2 91 233 1.1 2.2 1034.9 0.0000 0.0000
07:11 4.6 3.3 91 244 1.4 2.5 1034.8 0.0000 0.0000
07:21 4.6 3.3 91 241 1.4 2.2 1034.8 0.0000 0.0000
07:31 4.6 3.1 90 230 1.7 2.5 1034.8 0.0000 0.0000
07:41 4.6 3.1 90 227 1.7 2.8 1034.9 0.0000 0.0000
07:51 4.7 3.2 90 225 1.7 2.8 1034.9 0.0000 0.0000
08:02 4.7 3.2 90 245 1.7 2.8 1034.9 0.0000 0.0000
08:12 4.8 3.3 90 243 1.9 3.3 1034.9 0.0000 0.0000
08:22 4.8 3.1 89 232 1.7 2.5 1035 0.0000 0.0000
08:32 4.9 3.2 89 255 1.1 1.7 1034.9 0.0000 0.0000
08:42 5 3.3 89 270 0.3 1.1 1035 0.0000 0.0000
08:52 5.1 3.4 89 210 0.3 0.8 1034.9 0.0000 0.0000
09:02 5.3 3.6 89 298 0.8 1.4 1035 0.0000 0.0000
09:12 5.6 3.9 89 270 0.3 1.1 1034.9 0.0000 0.0000
09:23 5.8 4 88 270 1.1 2.2 1034.8 0.0000 0.0000
09:32 6.1 4.3 88 254 2.5 3.1 1034.8 0.0000 0.0000
09:43 6.5 4.5 87 293 2.2 3.9 1034.9 0.0000 0.0000
09:53 6.8 4.6 86 313 1.7 3.6 1034.9 0.0000 0.0000
10:03 7.1 4.9 86 315 1.4 2.8 1035 0.0000 0.0000
10:13 7.4 5 85 238 0.8 1.9 1035.2 0.0000 0.0000
10:28 7.7 5.3 85 221 0.6 1.4 1035.1 0.0000 0.0000
10:38 7.9 5.5 85 231 0.8 1.4 1035.1 0.0000 0.0000
10:48 8 5.6 85 245 0.8 1.9 1035 0.0000 0.0000
10:54 8.2 5.7 84 238 0.8 1.9 1034.9 0.0000 0.0000
11:09 8.5 6 84 227 1.1 2.5 1034.8 0.0000 0.0000
11:19 8.8 6.1 83 214 1.4 2.5 1034.6 0.0000 0.0000
11:29 9.1 6 81 249 1.4 3.3 1034.5 0.0000 0.0000
11:40 9.4 5.9 79 228 1.4 3.1 1034.4 0.0000 0.0000
11:50 9.7 5.9 77 256 1.9 4.7 1034.2 0.0000 0.0000
11:59 10.2 6.4 77 74 2.8 4.4 1034.1 0.0000 0.0000
12:10 10.7 6.1 73 74 2.8 4.4 1033.9 0.0000 0.0000
12:20 11 5.5 69 74 2.8 4.4 1034 0.0000 0.0000
12:35 11.3 5.6 68 60 3.1 5.3 1033.9 0.0000 0.0000
12:45 11.5 5.6 67 67 1.7 3.6 1033.8 0.0000 0.0000
12:56 11.6 5.7 67 45 1.7 3.6 1033.8 0.0000 0.0000
13:06 11.6 5.5 66 51 1.7 3.6 1033.7 0.0000 0.0000
13:16 11.6 5.5 66 76 1.7 3.6 1033.5 0.0000 0.0000
13:20 11.6 5.3 65 75 1.7 6.9 1033.4 0.0000 0.0000
13:30 11.6 5 64 64 1.4 2.8 1033.4 0.0000 0.0000
13:47 11.6 4.8 63 59 1.9 7.8 1033.2 0.0000 0.0000
14:07 11.5 5.6 67 191 1.9 4.4 1033.2 0.0000 0.0000
14:18 11.4 5.5 67 173 1.4 4.2 1033.2 0.0000 0.0000
14:23 11.4 5.5 67 166 1.7 5.3 1033.1 0.0000 0.0000
14:38 11.2 5.3 67 344 1.4 2.8 1033.1 0.0000 0.0000
14:49 11.1 5.2 67 184 1.1 2.5 1033.1 0.0000 0.0000
14:58 11 5.1 67 129 0.8 2.5 1033.2 0.0000 0.0000
15:09 10.8 4.9 67 135 1.1 3.1 1033.1 0.0000 0.0000
15:19 10.7 4.6 66 315 0.8 2.8 1033.1 0.0000 0.0000
15:25 10.6 4.3 65 158 0.8 2.5 1033.1 0.0000 0.0000
15:40 10.4 4.1 65 165 0.8 2.2 1033 0.0000 0.0000
15:45 10.3 4 65 240 1.1 3.3 1033.1 0.0000 0.0000
16:00 10.1 4 66 260 0.8 1.7 1033 0.0000 0.0000
16:10 10 3.9 66 270 1.1 2.5 1033.1 0.0000 0.0000
16:20 9.9 4.3 68 270 1.1 2.2 1033 0.0000 0.0000
16:35 9.7 4.1 68 237 1.1 2.2 1033 0.0000 0.0000
16:45 9.6 3.8 67 257 1.1 2.2 1033 0.0000 0.0000
16:56 9.5 4.1 69 315 1.1 2.5 1033 0.0000 0.0000
17:06 9.4 4 69 270 0.8 1.9 1033.1 0.0000 0.0000
17:16 9.3 3.9 69 354 1.1 2.2 1033.2 0.0000 0.0000
17:26 9.2 4 70 300 1.4 2.5 1033.2 0.0000 0.0000
17:37 9.1 3.9 70 315 1.7 3.9 1033.3 0.0000 0.0000
17:47 9.1 3.9 70 320 1.7 2.8 1033.2 0.0000 0.0000
17:56 9 4 71 320 1.4 2.8 1033.3 0.0000 0.0000
18:07 8.9 3.9 71 314 1.9 3.9 1033.4 0.0000 0.0000
18:17 8.9 4.1 72 311 3.1 5 1033.4 0.0000 0.0000
18:27 8.8 4 72 298 2.5 4.2 1033.4 0.0000 0.0000
18:37 8.7 4.1 73 283 2.2 4.2 1033.5 0.0000 0.0000
18:47 8.7 4.1 73 286 1.9 3.9 1033.5 0.0000 0.0000
18:57 8.6 4 73 258 2.8 4.7 1033.6 0.0000 0.0000
19:07 8.5 3.9 73 241 3.1 5 1033.6 0.0000 0.0000
19:18 8.5 3.7 72 237 3.1 5 1033.7 0.0000 0.0000
19:23 8.4 3.7 72 235 3.1 4.2 1033.7 0.0000 0.0000
19:38 8.4 3.7 72 243 2.5 3.6 1033.8 0.0000 0.0000
19:48 8.3 3.4 71 239 2.8 3.6 1033.8 0.0000 0.0000
19:59 8.3 3.4 71 242 2.2 3.6 1033.8 0.0000 0.0000
20:09 8.2 3.3 71 241 1.9 3.6 1033.8 0.0000 0.0000
20:18 8.2 3.3 71 248 1.7 3.1 1033.8 0.0000 0.0000
20:29 8.2 3.5 72 261 1.4 3.3 1033.8 0.0000 0.0000
20:39 8.1 3.2 71 258 1.4 3.6 1033.9 0.0000 0.0000
20:49 8.1 3.4 72 256 1.1 2.2 1033.9 0.0000 0.0000
20:59 8 3.3 72 256 1.1 2.2 1033.9 0.0000 0.0000
21:10 8 3.3 72 247 0.8 1.9 1033.9 0.0000 0.0000
21:19 7.9 3.2 72 242 0.8 2.2 1033.9 0.0000 0.0000
21:29 7.8 3.1 72 245 0.8 2.5 1033.9 0.0000 0.0000
21:39 7.8 3.1 72 270 0.8 2.2 1033.9 0.0000 0.0000
21:55 7.7 3 72 270 0.8 1.9 1033.9 0.0000 0.0000
22:10 7.6 2.9 72 243 0.8 2.2 1033.9 0.0000 0.0000
22:20 7.6 2.9 72 250 0.8 1.9 1033.9 0.0000 0.0000
22:30 7.6 2.7 71 261 1.1 2.8 1033.9 0.0000 0.0000
22:41 7.6 2.7 71 256 1.1 3.1 1033.9 0.0000 0.0000
22:51 7.6 2.7 71 270 1.1 2.8 1033.8 0.0000 0.0000
23:01 7.6 2.7 71 247 0.8 2.2 1033.8 0.0000 0.0000
23:11 7.5 2.6 71 270 1.1 2.5 1033.8 0.0000 0.0000
23:21 7.5 2.6 71 270 1.1 2.8 1033.8 0.0000 0.0000
23:31 7.5 2.6 71 301 1.4 3.3 1033.8 0.0000 0.0000
23:41 7.4 2.5 71 306 1.4 3.6 1033.7 0.0000 0.0000
23:52 7.4 2.5 71 296 1.1 2.8 1033.7 0.0000

DAY STATISTIC

2020-01-16
TEMPERATURE
AVERAGE
7.5
HIGH
11.6
12:56
LOW
4.1
03:57
PRESSURE
AVERAGE
1034.3
HIGH
1036.0
00:09
LOW
1033.0
15:40
DEWPOINT
AVERAGE
4.0
HIGH
6.4
11:59
LOW
2.5
23:41
HUMIDITY
AVERAGE
79
HIGH
94
00:09
LOW
63
13:47
WIND SPEED
AVERAGE
1.5
HIGH
3.1
12:35
WIND GUST
AVERAGE
2.9
HIGH
7.8
13:47
WIND DIRECTION
PREVAILING
SW
46.6%
N
1.5
NE
4.6
E
3.8
SE
1.5
S
4.6
SW
46.6
W
25.2
NW
12.2
PRECIPITATION
RAIN HOUR
0.0
RAIN DAY
0.0
TEMPERATURE (°C)
LOW
4.1
HIGH
11.6
AVERAGE
7.5
PRESSURE (hpa)
LOW
1033.0
HIGH
1036.0
AVERAGE
1034.3
DEVICE